Lincoln, IL (62656)

1:10 PM CST on January 17, 2017 (GMT -0600)
East Lincoln | | Change Station

Elev 610 ft 40.14 °N, 89.35 °W | Updated 24 seconds ago

Overcast
Overcast
41.7 °F
Feels Like 37 °F
N
7.4
Wind Variable Wind from WNW
Gusts 9.8 mph

Today
High -- | Low -- °F
--% Chance of Precip.
Yesterday
High -- | Low -- °F
Precip. -- in
Pressure 29.97 in
Visibility 10.0 miles
Clouds Overcast 700 ft
Windchill 37 °F
Dew Point 32 °F
Humidity 69%
Rainfall 0.02 in
Snow Depth Not available.
7:16 AM 4:58 PM
Waning Gibbous, 70% visible
METAR KAAA 171855Z AUTO 26003KT 10SM OVC007 05/04 A2997 RMK AO2 T00470035
Pressure 29.97 in
Visibility 10.0 miles
Clouds Overcast 700 ft
Windchill 37 °F
Dew Point 32 °F
Humidity 69%
Rainfall 0.02 in
Snow Depth Not available.
7:16 AM 4:58 PM
Waning Gibbous, 70% visible
METAR KAAA 171855Z AUTO 26003KT 10SM OVC007 05/04 A2997 RMK AO2 T00470035

Get Your Daily Forecast Email!

Thanks for signing up!

Be on the lookout for a verification email in your inbox.

You'll start receiving the daily forecast at 8 AM.

×

10-Day Weather Forecast

Almanac

Astronomy

Jan. 17, 2017 Rise Set
Actual Time
Civil Twilight
Nautical Twilight
Astronomical Twilight
Moon
Length of Visible Light
Length of Day
Tomorrow will be .
, % of the Moon is Illuminated

Today's Extremes

State Highs State Lows

Community

WunderPhotos

Upload Photos

1,962,540 photos uploaded!

WunderBlog® & News

Nearby

Air Quality

  Air Quality AQ Index Pollutant
Not available.

Snow Depth

Station Depth Elevation

Earthquake Activity

City Distance Mag. Time & Date
Minimum magnitude displayed is 2.5.

Coastal Water Temperatures

Place Temperature

Stations

Nearby Weather Stations

Station Location Temp. Windchill Dew Point Humidity Wind Precip. Elev Updated Type
                   

Watches & Warnings

There are currently no watches in effect.